sensor_id;sensor_type;location;lat;lon;timestamp;P1;durP1;ratioP1;P2;durP2;ratioP2
58244;SDS011;44550;43.864;25.986;2022-07-17T00:03:00;5.30;;;3.20;;
58244;SDS011;44550;43.864;25.986;2022-07-17T00:07:02;4.13;;;3.30;;
58244;SDS011;44550;43.864;25.986;2022-07-17T00:11:02;5.03;;;3.15;;
58244;SDS011;44550;43.864;25.986;2022-07-17T00:15:02;3.22;;;3.00;;
58244;SDS011;44550;43.864;25.986;2022-07-17T00:19:03;6.07;;;3.80;;
58244;SDS011;44550;43.864;25.986;2022-07-17T00:23:06;8.50;;;3.05;;
58244;SDS011;44550;43.864;25.986;2022-07-17T00:27:05;4.43;;;3.45;;
58244;SDS011;44550;43.864;25.986;2022-07-17T00:31:05;3.55;;;3.25;;
58244;SDS011;44550;43.864;25.986;2022-07-17T00:35:05;5.35;;;4.25;;
58244;SDS011;44550;43.864;25.986;2022-07-17T00:39:08;7.75;;;4.50;;
58244;SDS011;44550;43.864;25.986;2022-07-17T00:43:07;11.52;;;4.47;;
58244;SDS011;44550;43.864;25.986;2022-07-17T00:47:13;6.47;;;4.60;;
58244;SDS011;44550;43.864;25.986;2022-07-17T00:51:15;7.15;;;4.85;;
58244;SDS011;44550;43.864;25.986;2022-07-17T00:55:18;11.60;;;7.38;;
58244;SDS011;44550;43.864;25.986;2022-07-17T00:59:37;12.20;;;5.00;;
58244;SDS011;44550;43.864;25.986;2022-07-17T01:03:38;10.65;;;4.82;;
58244;SDS011;44550;43.864;25.986;2022-07-17T01:07:40;8.18;;;5.35;;
58244;SDS011;44550;43.864;25.986;2022-07-17T01:11:41;16.40;;;6.15;;
58244;SDS011;44550;43.864;25.986;2022-07-17T01:15:42;7.35;;;4.93;;
58244;SDS011;44550;43.864;25.986;2022-07-17T01:19:42;7.60;;;4.28;;
58244;SDS011;44550;43.864;25.986;2022-07-17T01:23:44;5.45;;;3.63;;
58244;SDS011;44550;43.864;25.986;2022-07-17T01:27:44;7.80;;;4.10;;
58244;SDS011;44550;43.864;25.986;2022-07-17T01:31:43;12.10;;;5.63;;
58244;SDS011;44550;43.864;25.986;2022-07-17T01:35:43;9.80;;;6.18;;
58244;SDS011;44550;43.864;25.986;2022-07-17T01:39:45;11.73;;;6.38;;
58244;SDS011;44550;43.864;25.986;2022-07-17T01:43:55;15.70;;;8.10;;
58244;SDS011;44550;43.864;25.986;2022-07-17T01:47:55;17.00;;;6.85;;
58244;SDS011;44550;43.864;25.986;2022-07-17T01:51:55;10.10;;;5.80;;
58244;SDS011;44550;43.864;25.986;2022-07-17T01:55:58;11.57;;;4.13;;
58244;SDS011;44550;43.864;25.986;2022-07-17T01:59:58;3.90;;;3.55;;
58244;SDS011;44550;43.864;25.986;2022-07-17T02:04:03;4.95;;;3.83;;
58244;SDS011;44550;43.864;25.986;2022-07-17T02:08:03;5.13;;;3.95;;
58244;SDS011;44550;43.864;25.986;2022-07-17T02:12:06;8.45;;;4.22;;
58244;SDS011;44550;43.864;25.986;2022-07-17T02:16:06;3.50;;;3.20;;
58244;SDS011;44550;43.864;25.986;2022-07-17T02:20:06;4.82;;;3.25;;
58244;SDS011;44550;43.864;25.986;2022-07-17T02:24:06;4.50;;;3.35;;
58244;SDS011;44550;43.864;25.986;2022-07-17T02:28:08;7.90;;;3.42;;
58244;SDS011;44550;43.864;25.986;2022-07-17T02:32:08;6.95;;;3.63;;
58244;SDS011;44550;43.864;25.986;2022-07-17T02:36:08;5.60;;;3.38;;
58244;SDS011;44550;43.864;25.986;2022-07-17T02:40:09;3.70;;;3.30;;
58244;SDS011;44550;43.864;25.986;2022-07-17T02:44:12;3.88;;;3.50;;
58244;SDS011;44550;43.864;25.986;2022-07-17T02:48:12;4.63;;;3.55;;
58244;SDS011;44550;43.864;25.986;2022-07-17T02:52:11;5.63;;;4.60;;
58244;SDS011;44550;43.864;25.986;2022-07-17T02:56:11;4.90;;;4.40;;
58244;SDS011;44550;43.864;25.986;2022-07-17T03:00:14;5.22;;;3.85;;
58244;SDS011;44550;43.864;25.986;2022-07-17T03:04:15;5.72;;;3.80;;
58244;SDS011;44550;43.864;25.986;2022-07-17T03:08:15;5.90;;;3.88;;
58244;SDS011;44550;43.864;25.986;2022-07-17T03:12:15;5.82;;;3.55;;
58244;SDS011;44550;43.864;25.986;2022-07-17T03:16:17;9.15;;;4.43;;
58244;SDS011;44550;43.864;25.986;2022-07-17T03:20:17;5.72;;;3.85;;
58244;SDS011;44550;43.864;25.986;2022-07-17T03:24:16;5.70;;;3.95;;
58244;SDS011;44550;43.864;25.986;2022-07-17T03:28:25;6.10;;;4.38;;
58244;SDS011;44550;43.864;25.986;2022-07-17T03:32:34;8.85;;;4.28;;
58244;SDS011;44550;43.864;25.986;2022-07-17T03:36:36;5.97;;;4.47;;
58244;SDS011;44550;43.864;25.986;2022-07-17T03:40:36;6.05;;;4.35;;
58244;SDS011;44550;43.864;25.986;2022-07-17T03:44:39;6.90;;;4.38;;
58244;SDS011;44550;43.864;25.986;2022-07-17T03:48:46;4.90;;;3.72;;
58244;SDS011;44550;43.864;25.986;2022-07-17T03:52:52;6.88;;;3.53;;
58244;SDS011;44550;43.864;25.986;2022-07-17T03:56:55;3.58;;;3.28;;
58244;SDS011;44550;43.864;25.986;2022-07-17T04:01:02;10.27;;;4.15;;
58244;SDS011;44550;43.864;25.986;2022-07-17T04:05:04;7.20;;;4.22;;
58244;SDS011;44550;43.864;25.986;2022-07-17T04:09:09;6.00;;;4.13;;
58244;SDS011;44550;43.864;25.986;2022-07-17T04:13:09;10.30;;;4.18;;
58244;SDS011;44550;43.864;25.986;2022-07-17T04:17:09;4.90;;;3.88;;
58244;SDS011;44550;43.864;25.986;2022-07-17T04:21:15;6.15;;;3.65;;
58244;SDS011;44550;43.864;25.986;2022-07-17T04:25:15;4.80;;;3.47;;
58244;SDS011;44550;43.864;25.986;2022-07-17T04:29:19;7.05;;;3.60;;
58244;SDS011;44550;43.864;25.986;2022-07-17T04:33:20;5.45;;;3.90;;
58244;SDS011;44550;43.864;25.986;2022-07-17T04:37:22;11.70;;;5.28;;
58244;SDS011;44550;43.864;25.986;2022-07-17T04:41:22;4.80;;;3.80;;
58244;SDS011;44550;43.864;25.986;2022-07-17T04:45:24;10.90;;;4.70;;
58244;SDS011;44550;43.864;25.986;2022-07-17T04:49:24;6.97;;;4.30;;
58244;SDS011;44550;43.864;25.986;2022-07-17T04:53:26;8.68;;;4.07;;
58244;SDS011;44550;43.864;25.986;2022-07-17T04:57:27;5.70;;;3.92;;
58244;SDS011;44550;43.864;25.986;2022-07-17T05:01:26;9.32;;;4.15;;
58244;SDS011;44550;43.864;25.986;2022-07-17T05:05:27;4.80;;;3.70;;
58244;SDS011;44550;43.864;25.986;2022-07-17T05:09:29;7.03;;;4.25;;
58244;SDS011;44550;43.864;25.986;2022-07-17T05:13:29;6.20;;;4.25;;
58244;SDS011;44550;43.864;25.986;2022-07-17T05:17:29;8.35;;;4.35;;
58244;SDS011;44550;43.864;25.986;2022-07-17T05:21:28;9.10;;;4.40;;
58244;SDS011;44550;43.864;25.986;2022-07-17T05:25:30;6.20;;;4.47;;
58244;SDS011;44550;43.864;25.986;2022-07-17T05:29:30;10.32;;;4.93;;
58244;SDS011;44550;43.864;25.986;2022-07-17T05:33:30;9.30;;;5.43;;
58244;SDS011;44550;43.864;25.986;2022-07-17T05:37:30;7.05;;;5.20;;
58244;SDS011;44550;43.864;25.986;2022-07-17T05:41:32;8.60;;;5.30;;
58244;SDS011;44550;43.864;25.986;2022-07-17T05:45:32;6.05;;;5.43;;
58244;SDS011;44550;43.864;25.986;2022-07-17T05:49:32;7.78;;;5.05;;
58244;SDS011;44550;43.864;25.986;2022-07-17T05:53:32;8.25;;;5.82;;
58244;SDS011;44550;43.864;25.986;2022-07-17T05:57:34;9.48;;;5.90;;
58244;SDS011;44550;43.864;25.986;2022-07-17T06:01:34;7.05;;;5.88;;
58244;SDS011;44550;43.864;25.986;2022-07-17T06:05:34;7.13;;;6.07;;
58244;SDS011;44550;43.864;25.986;2022-07-17T06:09:34;9.10;;;6.10;;
58244;SDS011;44550;43.864;25.986;2022-07-17T06:13:36;10.00;;;5.78;;
58244;SDS011;44550;43.864;25.986;2022-07-17T06:17:35;11.45;;;6.18;;
58244;SDS011;44550;43.864;25.986;2022-07-17T06:21:40;7.88;;;5.88;;
58244;SDS011;44550;43.864;25.986;2022-07-17T06:25:40;6.40;;;4.90;;
58244;SDS011;44550;43.864;25.986;2022-07-17T06:29:42;9.00;;;5.63;;
58244;SDS011;44550;43.864;25.986;2022-07-17T06:33:52;6.82;;;5.40;;
58244;SDS011;44550;43.864;25.986;2022-07-17T06:38:02;6.70;;;4.90;;
58244;SDS011;44550;43.864;25.986;2022-07-17T06:42:02;6.72;;;4.95;;
58244;SDS011;44550;43.864;25.986;2022-07-17T06:46:04;7.72;;;4.90;;
58244;SDS011;44550;43.864;25.986;2022-07-17T06:50:04;6.40;;;5.10;;
58244;SDS011;44550;43.864;25.986;2022-07-17T06:54:05;6.90;;;5.25;;
58244;SDS011;44550;43.864;25.986;2022-07-17T06:58:06;9.40;;;4.90;;
58244;SDS011;44550;43.864;25.986;2022-07-17T07:02:08;10.68;;;5.13;;
58244;SDS011;44550;43.864;25.986;2022-07-17T07:06:08;9.82;;;5.20;;
58244;SDS011;44550;43.864;25.986;2022-07-17T07:10:08;9.77;;;6.00;;
58244;SDS011;44550;43.864;25.986;2022-07-17T07:14:08;6.45;;;4.88;;
58244;SDS011;44550;43.864;25.986;2022-07-17T07:18:10;6.50;;;5.25;;
58244;SDS011;44550;43.864;25.986;2022-07-17T07:22:10;7.53;;;5.70;;
58244;SDS011;44550;43.864;25.986;2022-07-17T07:26:09;6.72;;;4.75;;
58244;SDS011;44550;43.864;25.986;2022-07-17T07:30:09;7.22;;;4.80;;
58244;SDS011;44550;43.864;25.986;2022-07-17T07:34:11;6.20;;;4.85;;
58244;SDS011;44550;43.864;25.986;2022-07-17T07:38:11;8.77;;;4.28;;
58244;SDS011;44550;43.864;25.986;2022-07-17T07:42:12;6.20;;;4.85;;
58244;SDS011;44550;43.864;25.986;2022-07-17T07:46:12;8.23;;;4.85;;
58244;SDS011;44550;43.864;25.986;2022-07-17T07:50:14;6.95;;;4.70;;
58244;SDS011;44550;43.864;25.986;2022-07-17T07:54:13;11.15;;;4.57;;
58244;SDS011;44550;43.864;25.986;2022-07-17T07:58:13;6.82;;;3.72;;
58244;SDS011;44550;43.864;25.986;2022-07-17T08:02:14;12.82;;;4.50;;
58244;SDS011;44550;43.864;25.986;2022-07-17T08:06:16;16.05;;;4.68;;
58244;SDS011;44550;43.864;25.986;2022-07-17T08:10:16;5.55;;;4.22;;
58244;SDS011;44550;43.864;25.986;2022-07-17T08:14:15;4.82;;;4.38;;
58244;SDS011;44550;43.864;25.986;2022-07-17T08:18:15;7.38;;;3.80;;
58244;SDS011;44550;43.864;25.986;2022-07-17T08:22:18;4.43;;;4.03;;
58244;SDS011;44550;43.864;25.986;2022-07-17T08:26:38;5.75;;;3.85;;
58244;SDS011;44550;43.864;25.986;2022-07-17T08:30:38;7.45;;;3.78;;
58244;SDS011;44550;43.864;25.986;2022-07-17T08:34:38;5.07;;;3.20;;
58244;SDS011;44550;43.864;25.986;2022-07-17T08:38:39;5.15;;;3.10;;
58244;SDS011;44550;43.864;25.986;2022-07-17T08:42:40;4.53;;;2.58;;
58244;SDS011;44550;43.864;25.986;2022-07-17T08:46:40;3.58;;;2.95;;
58244;SDS011;44550;43.864;25.986;2022-07-17T08:50:40;6.85;;;3.25;;
58244;SDS011;44550;43.864;25.986;2022-07-17T08:54:42;8.18;;;2.92;;
58244;SDS011;44550;43.864;25.986;2022-07-17T08:58:42;3.97;;;2.67;;
58244;SDS011;44550;43.864;25.986;2022-07-17T09:02:52;3.97;;;3.03;;
58244;SDS011;44550;43.864;25.986;2022-07-17T09:06:58;5.20;;;3.25;;
58244;SDS011;44550;43.864;25.986;2022-07-17T09:11:01;4.68;;;2.70;;
58244;SDS011;44550;43.864;25.986;2022-07-17T09:15:13;4.43;;;3.08;;
58244;SDS011;44550;43.864;25.986;2022-07-17T09:19:23;3.63;;;2.95;;
58244;SDS011;44550;43.864;25.986;2022-07-17T09:23:26;3.28;;;2.90;;
58244;SDS011;44550;43.864;25.986;2022-07-17T09:27:32;3.17;;;2.80;;
58244;SDS011;44550;43.864;25.986;2022-07-17T09:31:33;7.22;;;3.03;;
58244;SDS011;44550;43.864;25.986;2022-07-17T09:35:33;2.63;;;2.42;;
58244;SDS011;44550;43.864;25.986;2022-07-17T09:39:36;8.60;;;3.40;;
58244;SDS011;44550;43.864;25.986;2022-07-17T09:43:42;10.55;;;3.80;;
58244;SDS011;44550;43.864;25.986;2022-07-17T09:47:47;12.65;;;7.68;;
58244;SDS011;44550;43.864;25.986;2022-07-17T09:51:54;5.93;;;4.30;;
58244;SDS011;44550;43.864;25.986;2022-07-17T09:55:54;7.05;;;5.03;;
58244;SDS011;44550;43.864;25.986;2022-07-17T10:00:02;5.28;;;2.88;;
58244;SDS011;44550;43.864;25.986;2022-07-17T10:04:08;7.47;;;3.28;;
58244;SDS011;44550;43.864;25.986;2022-07-17T10:08:08;7.78;;;5.70;;
58244;SDS011;44550;43.864;25.986;2022-07-17T10:12:07;5.03;;;4.05;;
58244;SDS011;44550;43.864;25.986;2022-07-17T10:16:10;5.07;;;2.92;;
58244;SDS011;44550;43.864;25.986;2022-07-17T10:20:11;2.67;;;2.47;;
58244;SDS011;44550;43.864;25.986;2022-07-17T10:24:11;3.50;;;2.50;;
58244;SDS011;44550;43.864;25.986;2022-07-17T10:28:11;4.32;;;2.72;;
58244;SDS011;44550;43.864;25.986;2022-07-17T10:32:17;3.45;;;2.53;;
58244;SDS011;44550;43.864;25.986;2022-07-17T10:36:17;2.50;;;2.00;;
58244;SDS011;44550;43.864;25.986;2022-07-17T10:40:18;5.65;;;2.13;;
58244;SDS011;44550;43.864;25.986;2022-07-17T10:44:23;5.20;;;2.20;;
58244;SDS011;44550;43.864;25.986;2022-07-17T10:48:25;2.20;;;1.80;;
58244;SDS011;44550;43.864;25.986;2022-07-17T10:52:25;3.17;;;2.10;;
58244;SDS011;44550;43.864;25.986;2022-07-17T10:56:25;19.05;;;3.45;;
58244;SDS011;44550;43.864;25.986;2022-07-17T11:00:26;5.40;;;2.53;;
58244;SDS011;44550;43.864;25.986;2022-07-17T11:04:37;5.13;;;2.17;;
58244;SDS011;44550;43.864;25.986;2022-07-17T11:08:43;5.05;;;2.13;;
58244;SDS011;44550;43.864;25.986;2022-07-17T11:12:45;3.33;;;2.50;;
58244;SDS011;44550;43.864;25.986;2022-07-17T11:16:45;2.08;;;1.98;;
58244;SDS011;44550;43.864;25.986;2022-07-17T11:20:52;3.17;;;2.10;;
58244;SDS011;44550;43.864;25.986;2022-07-17T11:24:54;4.60;;;2.10;;
58244;SDS011;44550;43.864;25.986;2022-07-17T11:28:55;5.35;;;3.20;;
58244;SDS011;44550;43.864;25.986;2022-07-17T11:32:59;2.55;;;2.35;;
58244;SDS011;44550;43.864;25.986;2022-07-17T11:37:03;2.22;;;1.88;;
58244;SDS011;44550;43.864;25.986;2022-07-17T11:41:04;2.35;;;1.90;;
58244;SDS011;44550;43.864;25.986;2022-07-17T11:45:05;4.90;;;3.25;;
58244;SDS011;44550;43.864;25.986;2022-07-17T11:49:07;5.90;;;2.35;;
58244;SDS011;44550;43.864;25.986;2022-07-17T11:53:09;3.92;;;2.13;;
58244;SDS011;44550;43.864;25.986;2022-07-17T11:57:13;3.53;;;1.88;;
58244;SDS011;44550;43.864;25.986;2022-07-17T12:01:16;2.55;;;1.80;;
58244;SDS011;44550;43.864;25.986;2022-07-17T12:05:24;2.22;;;2.10;;
58244;SDS011;44550;43.864;25.986;2022-07-17T12:09:33;3.78;;;2.30;;
58244;SDS011;44550;43.864;25.986;2022-07-17T12:13:42;2.72;;;2.13;;
58244;SDS011;44550;43.864;25.986;2022-07-17T12:17:45;5.28;;;2.40;;
58244;SDS011;44550;43.864;25.986;2022-07-17T12:21:55;4.38;;;2.45;;
58244;SDS011;44550;43.864;25.986;2022-07-17T12:26:05;3.97;;;2.72;;
58244;SDS011;44550;43.864;25.986;2022-07-17T12:30:06;2.28;;;2.10;;
58244;SDS011;44550;43.864;25.986;2022-07-17T12:34:07;4.57;;;2.35;;
58244;SDS011;44550;43.864;25.986;2022-07-17T12:38:07;3.65;;;2.55;;
58244;SDS011;44550;43.864;25.986;2022-07-17T12:42:09;4.07;;;2.38;;
58244;SDS011;44550;43.864;25.986;2022-07-17T12:46:10;2.60;;;2.13;;
58244;SDS011;44550;43.864;25.986;2022-07-17T12:50:20;3.67;;;3.15;;
58244;SDS011;44550;43.864;25.986;2022-07-17T12:54:20;4.20;;;3.90;;
58244;SDS011;44550;43.864;25.986;2022-07-17T12:58:22;5.03;;;2.90;;
58244;SDS011;44550;43.864;25.986;2022-07-17T13:02:22;2.85;;;2.63;;
58244;SDS011;44550;43.864;25.986;2022-07-17T13:06:22;4.43;;;3.75;;
58244;SDS011;44550;43.864;25.986;2022-07-17T13:10:22;6.38;;;4.25;;
58244;SDS011;44550;43.864;25.986;2022-07-17T13:14:24;7.60;;;5.70;;
58244;SDS011;44550;43.864;25.986;2022-07-17T13:18:24;6.82;;;5.70;;
58244;SDS011;44550;43.864;25.986;2022-07-17T13:22:24;6.60;;;4.38;;
58244;SDS011;44550;43.864;25.986;2022-07-17T13:26:24;8.77;;;5.28;;
58244;SDS011;44550;43.864;25.986;2022-07-17T13:30:29;6.85;;;5.60;;
58244;SDS011;44550;43.864;25.986;2022-07-17T13:34:29;4.50;;;4.10;;
58244;SDS011;44550;43.864;25.986;2022-07-17T13:38:29;3.13;;;2.92;;
58244;SDS011;44550;43.864;25.986;2022-07-17T13:42:30;5.25;;;4.05;;
58244;SDS011;44550;43.864;25.986;2022-07-17T13:46:32;6.50;;;4.47;;
58244;SDS011;44550;43.864;25.986;2022-07-17T13:50:32;9.45;;;4.80;;
58244;SDS011;44550;43.864;25.986;2022-07-17T13:54:32;6.65;;;5.55;;
58244;SDS011;44550;43.864;25.986;2022-07-17T13:58:33;7.18;;;5.15;;
58244;SDS011;44550;43.864;25.986;2022-07-17T14:02:36;5.88;;;5.28;;
58244;SDS011;44550;43.864;25.986;2022-07-17T14:06:37;5.82;;;5.32;;
58244;SDS011;44550;43.864;25.986;2022-07-17T14:10:37;6.18;;;4.55;;
58244;SDS011;44550;43.864;25.986;2022-07-17T14:14:39;6.38;;;4.97;;
58244;SDS011;44550;43.864;25.986;2022-07-17T14:18:41;6.93;;;5.05;;
58244;SDS011;44550;43.864;25.986;2022-07-17T14:22:55;5.80;;;4.60;;
58244;SDS011;44550;43.864;25.986;2022-07-17T14:26:55;5.75;;;4.40;;
58244;SDS011;44550;43.864;25.986;2022-07-17T14:30:55;7.07;;;4.35;;
58244;SDS011;44550;43.864;25.986;2022-07-17T14:35:09;5.57;;;4.22;;
58244;SDS011;44550;43.864;25.986;2022-07-17T14:39:09;4.88;;;4.13;;
58244;SDS011;44550;43.864;25.986;2022-07-17T14:43:09;3.42;;;3.13;;
58244;SDS011;44550;43.864;25.986;2022-07-17T14:47:09;3.17;;;2.88;;
58244;SDS011;44550;43.864;25.986;2022-07-17T14:51:13;3.85;;;2.55;;
58244;SDS011;44550;43.864;25.986;2022-07-17T14:55:13;9.52;;;2.40;;
58244;SDS011;44550;43.864;25.986;2022-07-17T14:59:21;4.38;;;2.97;;
58244;SDS011;44550;43.864;25.986;2022-07-17T15:03:21;2.22;;;2.00;;
58244;SDS011;44550;43.864;25.986;2022-07-17T15:07:23;5.80;;;2.35;;
58244;SDS011;44550;43.864;25.986;2022-07-17T15:11:23;3.60;;;2.90;;
58244;SDS011;44550;43.864;25.986;2022-07-17T15:15:22;8.60;;;3.63;;
58244;SDS011;44550;43.864;25.986;2022-07-17T15:19:22;2.70;;;2.50;;
58244;SDS011;44550;43.864;25.986;2022-07-17T15:23:24;2.58;;;2.35;;
58244;SDS011;44550;43.864;25.986;2022-07-17T15:27:24;6.10;;;2.42;;
58244;SDS011;44550;43.864;25.986;2022-07-17T15:31:23;6.82;;;2.75;;
58244;SDS011;44550;43.864;25.986;2022-07-17T15:35:23;2.13;;;1.92;;
58244;SDS011;44550;43.864;25.986;2022-07-17T15:39:25;8.32;;;2.47;;
58244;SDS011;44550;43.864;25.986;2022-07-17T15:43:25;4.75;;;3.90;;
58244;SDS011;44550;43.864;25.986;2022-07-17T15:47:25;7.30;;;5.35;;
58244;SDS011;44550;43.864;25.986;2022-07-17T15:51:25;9.98;;;5.32;;
58244;SDS011;44550;43.864;25.986;2022-07-17T15:55:28;8.32;;;6.70;;
58244;SDS011;44550;43.864;25.986;2022-07-17T15:59:28;12.85;;;7.65;;
58244;SDS011;44550;43.864;25.986;2022-07-17T16:03:28;3.92;;;3.35;;
58244;SDS011;44550;43.864;25.986;2022-07-17T16:07:34;29.52;;;11.57;;
58244;SDS011;44550;43.864;25.986;2022-07-17T16:11:37;5.38;;;2.80;;
58244;SDS011;44550;43.864;25.986;2022-07-17T16:15:36;5.85;;;2.65;;
58244;SDS011;44550;43.864;25.986;2022-07-17T16:19:37;5.70;;;2.88;;
58244;SDS011;44550;43.864;25.986;2022-07-17T16:23:37;8.40;;;2.88;;
58244;SDS011;44550;43.864;25.986;2022-07-17T16:27:43;6.10;;;2.60;;
58244;SDS011;44550;43.864;25.986;2022-07-17T16:31:43;2.85;;;2.25;;
58244;SDS011;44550;43.864;25.986;2022-07-17T16:35:43;3.13;;;2.63;;
58244;SDS011;44550;43.864;25.986;2022-07-17T16:39:46;4.70;;;2.47;;
58244;SDS011;44550;43.864;25.986;2022-07-17T16:43:48;4.40;;;2.97;;
58244;SDS011;44550;43.864;25.986;2022-07-17T16:47:48;3.20;;;2.55;;
58244;SDS011;44550;43.864;25.986;2022-07-17T16:51:56;3.58;;;3.28;;
58244;SDS011;44550;43.864;25.986;2022-07-17T16:55:56;8.32;;;3.30;;
58244;SDS011;44550;43.864;25.986;2022-07-17T16:59:58;6.25;;;3.50;;
58244;SDS011;44550;43.864;25.986;2022-07-17T17:03:58;4.50;;;3.42;;
58244;SDS011;44550;43.864;25.986;2022-07-17T17:07:58;6.43;;;3.13;;
58244;SDS011;44550;43.864;25.986;2022-07-17T17:11:57;5.78;;;3.38;;
58244;SDS011;44550;43.864;25.986;2022-07-17T17:15:59;8.48;;;3.42;;
58244;SDS011;44550;43.864;25.986;2022-07-17T17:20:00;6.90;;;3.92;;
58244;SDS011;44550;43.864;25.986;2022-07-17T17:23:59;3.40;;;3.10;;
58244;SDS011;44550;43.864;25.986;2022-07-17T17:27:59;5.40;;;2.88;;
58244;SDS011;44550;43.864;25.986;2022-07-17T17:32:02;5.38;;;2.58;;
58244;SDS011;44550;43.864;25.986;2022-07-17T17:36:03;9.50;;;3.00;;
58244;SDS011;44550;43.864;25.986;2022-07-17T17:40:03;5.30;;;2.70;;
58244;SDS011;44550;43.864;25.986;2022-07-17T17:44:04;6.05;;;3.08;;
58244;SDS011;44550;43.864;25.986;2022-07-17T17:48:07;9.13;;;3.20;;
58244;SDS011;44550;43.864;25.986;2022-07-17T17:52:08;5.10;;;2.92;;
58244;SDS011;44550;43.864;25.986;2022-07-17T17:56:08;6.93;;;3.60;;
58244;SDS011;44550;43.864;25.986;2022-07-17T18:00:08;9.50;;;3.53;;
58244;SDS011;44550;43.864;25.986;2022-07-17T18:04:10;10.93;;;3.10;;
58244;SDS011;44550;43.864;25.986;2022-07-17T18:08:11;7.20;;;3.22;;
58244;SDS011;44550;43.864;25.986;2022-07-17T18:12:11;18.85;;;5.03;;
58244;SDS011;44550;43.864;25.986;2022-07-17T18:16:10;6.05;;;3.13;;
58244;SDS011;44550;43.864;25.986;2022-07-17T18:20:13;17.48;;;4.57;;
58244;SDS011;44550;43.864;25.986;2022-07-17T18:24:13;9.70;;;4.38;;
58244;SDS011;44550;43.864;25.986;2022-07-17T18:28:17;9.23;;;4.00;;
58244;SDS011;44550;43.864;25.986;2022-07-17T18:32:17;11.13;;;4.40;;
58244;SDS011;44550;43.864;25.986;2022-07-17T18:36:19;9.40;;;3.80;;
58244;SDS011;44550;43.864;25.986;2022-07-17T18:40:19;9.15;;;3.60;;
58244;SDS011;44550;43.864;25.986;2022-07-17T18:44:21;19.08;;;5.50;;
58244;SDS011;44550;43.864;25.986;2022-07-17T18:48:21;6.32;;;4.60;;
58244;SDS011;44550;43.864;25.986;2022-07-17T18:52:23;7.22;;;4.95;;
58244;SDS011;44550;43.864;25.986;2022-07-17T18:56:25;12.68;;;4.85;;
58244;SDS011;44550;43.864;25.986;2022-07-17T19:00:25;11.55;;;3.95;;
58244;SDS011;44550;43.864;25.986;2022-07-17T19:04:27;4.45;;;4.05;;
58244;SDS011;44550;43.864;25.986;2022-07-17T19:08:29;6.40;;;4.68;;
58244;SDS011;44550;43.864;25.986;2022-07-17T19:12:30;7.80;;;3.97;;
58244;SDS011;44550;43.864;25.986;2022-07-17T19:16:30;5.32;;;3.97;;
58244;SDS011;44550;43.864;25.986;2022-07-17T19:20:30;10.55;;;4.53;;
58244;SDS011;44550;43.864;25.986;2022-07-17T19:24:32;15.35;;;8.10;;
58244;SDS011;44550;43.864;25.986;2022-07-17T19:28:33;12.93;;;6.05;;
58244;SDS011;44550;43.864;25.986;2022-07-17T19:32:32;9.32;;;5.90;;
58244;SDS011;44550;43.864;25.986;2022-07-17T19:36:32;8.18;;;5.00;;
58244;SDS011;44550;43.864;25.986;2022-07-17T19:40:34;8.25;;;4.65;;
58244;SDS011;44550;43.864;25.986;2022-07-17T19:44:34;6.15;;;4.15;;
58244;SDS011;44550;43.864;25.986;2022-07-17T19:48:37;5.13;;;3.65;;
58244;SDS011;44550;43.864;25.986;2022-07-17T19:52:37;5.28;;;3.30;;
58244;SDS011;44550;43.864;25.986;2022-07-17T19:56:39;8.10;;;3.70;;
58244;SDS011;44550;43.864;25.986;2022-07-17T20:00:42;5.32;;;3.72;;
58244;SDS011;44550;43.864;25.986;2022-07-17T20:04:42;7.18;;;3.85;;
58244;SDS011;44550;43.864;25.986;2022-07-17T20:08:42;14.88;;;4.40;;
58244;SDS011;44550;43.864;25.986;2022-07-17T20:12:44;4.43;;;3.08;;
58244;SDS011;44550;43.864;25.986;2022-07-17T20:16:52;3.85;;;3.17;;
58244;SDS011;44550;43.864;25.986;2022-07-17T20:20:55;5.18;;;3.58;;
58244;SDS011;44550;43.864;25.986;2022-07-17T20:24:55;13.05;;;4.93;;
58244;SDS011;44550;43.864;25.986;2022-07-17T20:28:56;10.20;;;3.65;;
58244;SDS011;44550;43.864;25.986;2022-07-17T20:32:56;6.40;;;3.25;;
58244;SDS011;44550;43.864;25.986;2022-07-17T20:36:56;106.40;;;14.60;;
58244;SDS011;44550;43.864;25.986;2022-07-17T20:40:55;96.43;;;13.93;;
58244;SDS011;44550;43.864;25.986;2022-07-17T20:44:57;61.08;;;9.98;;
58244;SDS011;44550;43.864;25.986;2022-07-17T20:48:57;72.70;;;14.23;;
58244;SDS011;44550;43.864;25.986;2022-07-17T20:52:57;31.50;;;4.72;;
58244;SDS011;44550;43.864;25.986;2022-07-17T20:57:03;42.30;;;6.63;;
58244;SDS011;44550;43.864;25.986;2022-07-17T21:01:05;35.38;;;4.85;;
58244;SDS011;44550;43.864;25.986;2022-07-17T21:05:08;36.75;;;5.70;;
58244;SDS011;44550;43.864;25.986;2022-07-17T21:09:10;33.63;;;5.00;;
58244;SDS011;44550;43.864;25.986;2022-07-17T21:13:13;45.33;;;5.97;;
58244;SDS011;44550;43.864;25.986;2022-07-17T21:17:15;48.42;;;6.78;;
58244;SDS011;44550;43.864;25.986;2022-07-17T21:21:21;30.77;;;5.50;;
58244;SDS011;44550;43.864;25.986;2022-07-17T21:25:21;12.82;;;2.58;;
58244;SDS011;44550;43.864;25.986;2022-07-17T21:29:21;21.40;;;4.05;;
58244;SDS011;44550;43.864;25.986;2022-07-17T21:33:23;16.45;;;4.57;;
58244;SDS011;44550;43.864;25.986;2022-07-17T21:37:26;18.92;;;3.05;;
58244;SDS011;44550;43.864;25.986;2022-07-17T21:41:26;18.77;;;3.08;;
58244;SDS011;44550;43.864;25.986;2022-07-17T21:45:26;11.85;;;2.35;;
58244;SDS011;44550;43.864;25.986;2022-07-17T21:49:28;26.33;;;4.43;;
58244;SDS011;44550;43.864;25.986;2022-07-17T21:53:28;68.93;;;9.70;;
58244;SDS011;44550;43.864;25.986;2022-07-17T21:57:27;25.55;;;3.97;;
58244;SDS011;44550;43.864;25.986;2022-07-17T22:01:28;33.95;;;5.38;;
58244;SDS011;44550;43.864;25.986;2022-07-17T22:05:30;4.43;;;1.55;;
58244;SDS011;44550;43.864;25.986;2022-07-17T22:09:31;8.15;;;2.00;;
58244;SDS011;44550;43.864;25.986;2022-07-17T22:13:31;8.43;;;1.92;;
58244;SDS011;44550;43.864;25.986;2022-07-17T22:17:34;4.75;;;2.25;;
58244;SDS011;44550;43.864;25.986;2022-07-17T22:21:37;5.47;;;1.83;;
58244;SDS011;44550;43.864;25.986;2022-07-17T22:25:37;3.40;;;1.48;;
58244;SDS011;44550;43.864;25.986;2022-07-17T22:29:38;5.50;;;1.90;;
58244;SDS011;44550;43.864;25.986;2022-07-17T22:33:38;3.38;;;1.25;;
58244;SDS011;44550;43.864;25.986;2022-07-17T22:37:40;5.60;;;1.55;;
58244;SDS011;44550;43.864;25.986;2022-07-17T22:41:40;3.40;;;1.48;;
58244;SDS011;44550;43.864;25.986;2022-07-17T22:45:40;3.90;;;1.65;;
58244;SDS011;44550;43.864;25.986;2022-07-17T22:49:40;4.07;;;1.38;;
58244;SDS011;44550;43.864;25.986;2022-07-17T22:53:42;5.53;;;1.58;;
58244;SDS011;44550;43.864;25.986;2022-07-17T22:57:42;1.65;;;0.88;;
58244;SDS011;44550;43.864;25.986;2022-07-17T23:01:41;3.10;;;1.55;;
58244;SDS011;44550;43.864;25.986;2022-07-17T23:05:42;4.82;;;2.58;;
58244;SDS011;44550;43.864;25.986;2022-07-17T23:09:44;2.65;;;2.03;;
58244;SDS011;44550;43.864;25.986;2022-07-17T23:13:44;6.05;;;1.95;;
58244;SDS011;44550;43.864;25.986;2022-07-17T23:17:44;2.05;;;1.50;;
58244;SDS011;44550;43.864;25.986;2022-07-17T23:21:43;3.92;;;1.50;;
58244;SDS011;44550;43.864;25.986;2022-07-17T23:25:46;5.03;;;1.35;;
58244;SDS011;44550;43.864;25.986;2022-07-17T23:29:46;6.43;;;1.70;;
58244;SDS011;44550;43.864;25.986;2022-07-17T23:33:46;1.58;;;1.00;;
58244;SDS011;44550;43.864;25.986;2022-07-17T23:37:47;3.58;;;1.70;;
58244;SDS011;44550;43.864;25.986;2022-07-17T23:41:48;3.53;;;1.75;;
58244;SDS011;44550;43.864;25.986;2022-07-17T23:45:49;6.15;;;1.70;;
58244;SDS011;44550;43.864;25.986;2022-07-17T23:49:50;2.67;;;1.08;;